sensor_id;sensor_type;location;lat;lon;timestamp;temperature;humidity
3005;DHT22;1512;51.486;6.610;2023-07-02T00:00:35;18.10;1.00
3005;DHT22;1512;51.486;6.610;2023-07-02T00:04:45;18.10;1.00
3005;DHT22;1512;51.486;6.610;2023-07-02T00:08:54;18.10;1.00
3005;DHT22;1512;51.486;6.610;2023-07-02T00:13:02;18.10;1.00
3005;DHT22;1512;51.486;6.610;2023-07-02T00:17:11;18.10;1.00
3005;DHT22;1512;51.486;6.610;2023-07-02T00:21:20;18.00;1.00
3005;DHT22;1512;51.486;6.610;2023-07-02T00:25:29;18.10;1.00
3005;DHT22;1512;51.486;6.610;2023-07-02T00:29:37;18.00;1.00
3005;DHT22;1512;51.486;6.610;2023-07-02T00:33:46;18.00;1.00
3005;DHT22;1512;51.486;6.610;2023-07-02T00:37:55;18.00;1.00
3005;DHT22;1512;51.486;6.610;2023-07-02T00:42:03;18.00;1.00
3005;DHT22;1512;51.486;6.610;2023-07-02T00:46:20;18.00;1.00
3005;DHT22;1512;51.486;6.610;2023-07-02T00:50:48;17.90;1.00
3005;DHT22;1512;51.486;6.610;2023-07-02T00:54:57;17.90;1.00
3005;DHT22;1512;51.486;6.610;2023-07-02T00:59:06;17.80;1.00
3005;DHT22;1512;51.486;6.610;2023-07-02T01:03:15;17.80;1.00
3005;DHT22;1512;51.486;6.610;2023-07-02T01:07:23;17.70;1.00
3005;DHT22;1512;51.486;6.610;2023-07-02T01:11:38;17.70;1.00
3005;DHT22;1512;51.486;6.610;2023-07-02T01:16:06;17.60;1.00
3005;DHT22;1512;51.486;6.610;2023-07-02T01:20:15;17.50;1.00
3005;DHT22;1512;51.486;6.610;2023-07-02T01:24:24;17.50;1.00
3005;DHT22;1512;51.486;6.610;2023-07-02T01:28:36;17.50;1.00
3005;DHT22;1512;51.486;6.610;2023-07-02T01:32:45;17.50;1.00
3005;DHT22;1512;51.486;6.610;2023-07-02T01:36:54;17.40;1.00
3005;DHT22;1512;51.486;6.610;2023-07-02T01:41:03;17.40;1.00
3005;DHT22;1512;51.486;6.610;2023-07-02T01:45:12;17.40;1.00
3005;DHT22;1512;51.486;6.610;2023-07-02T01:49:20;17.40;1.00
3005;DHT22;1512;51.486;6.610;2023-07-02T01:53:29;17.40;1.00
3005;DHT22;1512;51.486;6.610;2023-07-02T01:57:38;17.50;1.00
3005;DHT22;1512;51.486;6.610;2023-07-02T02:01:50;17.50;1.00
3005;DHT22;1512;51.486;6.610;2023-07-02T02:05:59;17.40;1.00
3005;DHT22;1512;51.486;6.610;2023-07-02T02:10:08;17.40;1.00
3005;DHT22;1512;51.486;6.610;2023-07-02T02:14:18;17.40;1.00
3005;DHT22;1512;51.486;6.610;2023-07-02T02:18:26;17.40;1.00
3005;DHT22;1512;51.486;6.610;2023-07-02T02:22:35;17.50;1.00
3005;DHT22;1512;51.486;6.610;2023-07-02T02:26:44;17.50;1.00
3005;DHT22;1512;51.486;6.610;2023-07-02T02:30:52;17.50;1.00
3005;DHT22;1512;51.486;6.610;2023-07-02T02:35:01;17.40;1.00
3005;DHT22;1512;51.486;6.610;2023-07-02T02:39:10;17.40;1.00
3005;DHT22;1512;51.486;6.610;2023-07-02T02:43:18;17.40;1.00
3005;DHT22;1512;51.486;6.610;2023-07-02T02:47:28;17.40;1.00
3005;DHT22;1512;51.486;6.610;2023-07-02T02:51:37;17.40;1.00
3005;DHT22;1512;51.486;6.610;2023-07-02T02:55:45;17.30;1.00
3005;DHT22;1512;51.486;6.610;2023-07-02T02:59:54;17.30;1.00
3005;DHT22;1512;51.486;6.610;2023-07-02T03:04:03;17.30;1.00
3005;DHT22;1512;51.486;6.610;2023-07-02T03:08:13;17.30;1.00
3005;DHT22;1512;51.486;6.610;2023-07-02T03:12:22;17.20;1.00
3005;DHT22;1512;51.486;6.610;2023-07-02T03:16:32;17.20;1.00
3005;DHT22;1512;51.486;6.610;2023-07-02T03:20:41;17.20;1.00
3005;DHT22;1512;51.486;6.610;2023-07-02T03:24:51;17.20;1.00
3005;DHT22;1512;51.486;6.610;2023-07-02T03:29:00;17.20;1.00
3005;DHT22;1512;51.486;6.610;2023-07-02T03:33:09;17.10;1.00
3005;DHT22;1512;51.486;6.610;2023-07-02T03:37:18;17.20;1.00
3005;DHT22;1512;51.486;6.610;2023-07-02T03:41:28;17.20;1.00
3005;DHT22;1512;51.486;6.610;2023-07-02T03:45:36;17.10;1.00
3005;DHT22;1512;51.486;6.610;2023-07-02T03:49:45;17.10;1.00
3005;DHT22;1512;51.486;6.610;2023-07-02T03:53:54;17.10;1.00
3005;DHT22;1512;51.486;6.610;2023-07-02T03:58:03;17.10;1.00
3005;DHT22;1512;51.486;6.610;2023-07-02T04:02:11;17.20;1.00
3005;DHT22;1512;51.486;6.610;2023-07-02T04:06:20;17.20;1.00
3005;DHT22;1512;51.486;6.610;2023-07-02T04:10:29;17.20;1.00
3005;DHT22;1512;51.486;6.610;2023-07-02T04:14:37;17.20;1.00
3005;DHT22;1512;51.486;6.610;2023-07-02T04:18:46;17.20;1.00
3005;DHT22;1512;51.486;6.610;2023-07-02T04:22:55;17.20;1.00
3005;DHT22;1512;51.486;6.610;2023-07-02T04:27:04;17.20;1.00
3005;DHT22;1512;51.486;6.610;2023-07-02T04:31:15;17.20;1.00
3005;DHT22;1512;51.486;6.610;2023-07-02T04:35:23;17.10;1.00
3005;DHT22;1512;51.486;6.610;2023-07-02T04:39:32;17.10;1.00
3005;DHT22;1512;51.486;6.610;2023-07-02T04:43:41;17.10;1.00
3005;DHT22;1512;51.486;6.610;2023-07-02T04:47:50;17.10;1.00
3005;DHT22;1512;51.486;6.610;2023-07-02T04:51:59;17.20;1.00
3005;DHT22;1512;51.486;6.610;2023-07-02T04:56:08;17.30;1.00
3005;DHT22;1512;51.486;6.610;2023-07-02T05:00:36;17.30;1.00
3005;DHT22;1512;51.486;6.610;2023-07-02T05:04:45;17.40;1.00
3005;DHT22;1512;51.486;6.610;2023-07-02T05:08:54;17.40;1.00
3005;DHT22;1512;51.486;6.610;2023-07-02T05:13:03;17.40;1.00
3005;DHT22;1512;51.486;6.610;2023-07-02T05:17:12;17.50;1.00
3005;DHT22;1512;51.486;6.610;2023-07-02T05:21:22;17.50;1.00
3005;DHT22;1512;51.486;6.610;2023-07-02T05:25:31;17.50;1.00
3005;DHT22;1512;51.486;6.610;2023-07-02T05:29:42;17.50;1.00
3005;DHT22;1512;51.486;6.610;2023-07-02T05:33:51;17.40;1.00
3005;DHT22;1512;51.486;6.610;2023-07-02T05:38:00;17.50;1.00
3005;DHT22;1512;51.486;6.610;2023-07-02T05:42:08;17.50;1.00
3005;DHT22;1512;51.486;6.610;2023-07-02T05:46:19;17.50;1.00
3005;DHT22;1512;51.486;6.610;2023-07-02T05:50:27;17.50;1.00
3005;DHT22;1512;51.486;6.610;2023-07-02T05:54:40;17.60;1.00
3005;DHT22;1512;51.486;6.610;2023-07-02T05:58:49;17.70;1.00
3005;DHT22;1512;51.486;6.610;2023-07-02T06:02:58;17.70;1.00
3005;DHT22;1512;51.486;6.610;2023-07-02T06:07:07;17.80;1.00
3005;DHT22;1512;51.486;6.610;2023-07-02T06:11:16;17.80;1.00
3005;DHT22;1512;51.486;6.610;2023-07-02T06:15:24;17.80;1.00
3005;DHT22;1512;51.486;6.610;2023-07-02T06:19:33;17.90;1.00
3005;DHT22;1512;51.486;6.610;2023-07-02T06:23:45;18.10;99.90
3005;DHT22;1512;51.486;6.610;2023-07-02T06:27:54;18.20;99.90
3005;DHT22;1512;51.486;6.610;2023-07-02T06:32:05;18.30;99.90
3005;DHT22;1512;51.486;6.610;2023-07-02T06:36:33;18.40;99.90
3005;DHT22;1512;51.486;6.610;2023-07-02T06:40:41;18.40;99.90
3005;DHT22;1512;51.486;6.610;2023-07-02T06:44:50;18.40;99.90
3005;DHT22;1512;51.486;6.610;2023-07-02T06:53:20;18.50;99.90
3005;DHT22;1512;51.486;6.610;2023-07-02T06:57:28;18.60;99.90
3005;DHT22;1512;51.486;6.610;2023-07-02T07:01:37;18.60;99.90
3005;DHT22;1512;51.486;6.610;2023-07-02T07:05:46;18.60;99.90
3005;DHT22;1512;51.486;6.610;2023-07-02T07:09:55;18.70;99.90
3005;DHT22;1512;51.486;6.610;2023-07-02T07:14:03;18.80;99.90
3005;DHT22;1512;51.486;6.610;2023-07-02T07:18:12;18.90;99.90
3005;DHT22;1512;51.486;6.610;2023-07-02T07:22:41;18.90;99.90
3005;DHT22;1512;51.486;6.610;2023-07-02T07:26:50;18.90;99.90
3005;DHT22;1512;51.486;6.610;2023-07-02T07:30:58;18.90;99.90
3005;DHT22;1512;51.486;6.610;2023-07-02T07:35:07;19.10;99.90
3005;DHT22;1512;51.486;6.610;2023-07-02T07:39:16;19.30;99.90
3005;DHT22;1512;51.486;6.610;2023-07-02T07:43:25;19.40;99.90
3005;DHT22;1512;51.486;6.610;2023-07-02T07:47:34;19.40;99.90
3005;DHT22;1512;51.486;6.610;2023-07-02T07:51:43;19.30;99.90
3005;DHT22;1512;51.486;6.610;2023-07-02T07:55:51;19.30;99.90
3005;DHT22;1512;51.486;6.610;2023-07-02T08:00:00;19.30;99.90
3005;DHT22;1512;51.486;6.610;2023-07-02T08:04:09;19.40;99.90
3005;DHT22;1512;51.486;6.610;2023-07-02T08:08:18;19.50;99.90
3005;DHT22;1512;51.486;6.610;2023-07-02T08:12:28;19.50;99.90
3005;DHT22;1512;51.486;6.610;2023-07-02T08:16:38;19.50;99.90
3005;DHT22;1512;51.486;6.610;2023-07-02T08:20:47;19.50;99.90
3005;DHT22;1512;51.486;6.610;2023-07-02T08:24:56;19.60;99.90
3005;DHT22;1512;51.486;6.610;2023-07-02T08:29:05;19.70;99.90
3005;DHT22;1512;51.486;6.610;2023-07-02T08:33:14;19.90;99.90
3005;DHT22;1512;51.486;6.610;2023-07-02T08:37:23;19.90;99.90
3005;DHT22;1512;51.486;6.610;2023-07-02T08:41:41;19.80;99.90
3005;DHT22;1512;51.486;6.610;2023-07-02T08:45:43;19.90;99.90
3005;DHT22;1512;51.486;6.610;2023-07-02T08:49:52;20.20;99.90
3005;DHT22;1512;51.486;6.610;2023-07-02T08:54:02;20.30;99.90
3005;DHT22;1512;51.486;6.610;2023-07-02T08:58:11;20.10;99.90
3005;DHT22;1512;51.486;6.610;2023-07-02T09:07:09;20.20;99.90
3005;DHT22;1512;51.486;6.610;2023-07-02T09:11:18;20.20;99.90
3005;DHT22;1512;51.486;6.610;2023-07-02T09:15:34;20.30;99.90
3005;DHT22;1512;51.486;6.610;2023-07-02T09:19:49;20.40;99.90
3005;DHT22;1512;51.486;6.610;2023-07-02T09:23:51;20.20;99.90
3005;DHT22;1512;51.486;6.610;2023-07-02T09:28:00;20.20;99.90
3005;DHT22;1512;51.486;6.610;2023-07-02T09:32:08;20.10;99.90
3005;DHT22;1512;51.486;6.610;2023-07-02T09:36:18;20.10;99.90
3005;DHT22;1512;51.486;6.610;2023-07-02T09:40:27;20.10;99.90
3005;DHT22;1512;51.486;6.610;2023-07-02T09:44:36;20.20;99.90
3005;DHT22;1512;51.486;6.610;2023-07-02T09:48:46;20.40;99.90
3005;DHT22;1512;51.486;6.610;2023-07-02T09:52:55;20.50;99.90
3005;DHT22;1512;51.486;6.610;2023-07-02T09:57:04;20.50;99.90
3005;DHT22;1512;51.486;6.610;2023-07-02T10:01:36;20.70;99.90
3005;DHT22;1512;51.486;6.610;2023-07-02T10:05:46;20.90;99.90
3005;DHT22;1512;51.486;6.610;2023-07-02T10:09:54;21.20;99.90
3005;DHT22;1512;51.486;6.610;2023-07-02T10:14:03;21.20;99.90
3005;DHT22;1512;51.486;6.610;2023-07-02T10:18:12;21.30;99.90
3005;DHT22;1512;51.486;6.610;2023-07-02T10:22:21;21.40;99.90
3005;DHT22;1512;51.486;6.610;2023-07-02T10:26:30;21.40;99.90
3005;DHT22;1512;51.486;6.610;2023-07-02T10:30:41;21.40;99.90
3005;DHT22;1512;51.486;6.610;2023-07-02T10:34:50;21.40;99.90
3005;DHT22;1512;51.486;6.610;2023-07-02T10:39:02;21.20;99.90
3005;DHT22;1512;51.486;6.610;2023-07-02T10:43:12;21.10;99.90
3005;DHT22;1512;51.486;6.610;2023-07-02T10:47:21;21.00;99.90
3005;DHT22;1512;51.486;6.610;2023-07-02T10:51:30;21.10;99.90
3005;DHT22;1512;51.486;6.610;2023-07-02T10:55:38;21.10;99.90
3005;DHT22;1512;51.486;6.610;2023-07-02T10:59:47;21.20;99.90
3005;DHT22;1512;51.486;6.610;2023-07-02T11:04:05;21.50;99.90
3005;DHT22;1512;51.486;6.610;2023-07-02T11:08:14;21.70;99.90
3005;DHT22;1512;51.486;6.610;2023-07-02T11:12:30;22.00;99.90
3005;DHT22;1512;51.486;6.610;2023-07-02T11:16:39;21.90;99.90
3005;DHT22;1512;51.486;6.610;2023-07-02T11:20:48;21.50;99.90
3005;DHT22;1512;51.486;6.610;2023-07-02T11:24:57;21.40;99.90
3005;DHT22;1512;51.486;6.610;2023-07-02T11:29:12;21.30;99.90
3005;DHT22;1512;51.486;6.610;2023-07-02T11:33:37;21.50;99.90
3005;DHT22;1512;51.486;6.610;2023-07-02T11:37:46;21.70;99.90
3005;DHT22;1512;51.486;6.610;2023-07-02T11:41:57;21.60;99.90
3005;DHT22;1512;51.486;6.610;2023-07-02T11:46:05;21.60;99.90
3005;DHT22;1512;51.486;6.610;2023-07-02T11:50:14;21.90;99.90
3005;DHT22;1512;51.486;6.610;2023-07-02T11:54:24;22.20;99.90
3005;DHT22;1512;51.486;6.610;2023-07-02T11:58:53;22.30;99.90
3005;DHT22;1512;51.486;6.610;2023-07-02T12:03:01;22.00;99.90
3005;DHT22;1512;51.486;6.610;2023-07-02T12:07:10;22.00;99.90
3005;DHT22;1512;51.486;6.610;2023-07-02T12:11:20;21.90;99.90
3005;DHT22;1512;51.486;6.610;2023-07-02T12:15:29;22.20;99.90
3005;DHT22;1512;51.486;6.610;2023-07-02T12:19:43;22.40;99.90
3005;DHT22;1512;51.486;6.610;2023-07-02T12:23:48;22.30;99.90
3005;DHT22;1512;51.486;6.610;2023-07-02T12:27:56;22.40;99.90
3005;DHT22;1512;51.486;6.610;2023-07-02T12:32:05;22.60;99.90
3005;DHT22;1512;51.486;6.610;2023-07-02T12:36:14;22.90;99.90
3005;DHT22;1512;51.486;6.610;2023-07-02T12:40:23;23.10;99.90
3005;DHT22;1512;51.486;6.610;2023-07-02T12:44:32;22.90;99.90
3005;DHT22;1512;51.486;6.610;2023-07-02T12:48:40;22.50;99.90
3005;DHT22;1512;51.486;6.610;2023-07-02T12:52:49;22.40;99.90
3005;DHT22;1512;51.486;6.610;2023-07-02T12:56:58;22.80;99.90
3005;DHT22;1512;51.486;6.610;2023-07-02T13:01:06;22.70;99.90
3005;DHT22;1512;51.486;6.610;2023-07-02T13:05:15;22.80;99.90
3005;DHT22;1512;51.486;6.610;2023-07-02T13:09:24;23.10;99.90
3005;DHT22;1512;51.486;6.610;2023-07-02T13:13:33;23.10;99.90
3005;DHT22;1512;51.486;6.610;2023-07-02T13:17:43;23.00;99.90
3005;DHT22;1512;51.486;6.610;2023-07-02T13:21:52;22.60;99.90
3005;DHT22;1512;51.486;6.610;2023-07-02T13:26:01;22.70;99.90
3005;DHT22;1512;51.486;6.610;2023-07-02T13:30:09;22.90;99.90
3005;DHT22;1512;51.486;6.610;2023-07-02T13:34:18;23.20;99.90
3005;DHT22;1512;51.486;6.610;2023-07-02T13:38:27;23.00;99.90
3005;DHT22;1512;51.486;6.610;2023-07-02T13:42:36;23.00;99.90
3005;DHT22;1512;51.486;6.610;2023-07-02T13:46:45;23.00;99.90
3005;DHT22;1512;51.486;6.610;2023-07-02T13:50:55;22.90;99.90
3005;DHT22;1512;51.486;6.610;2023-07-02T13:55:04;22.90;99.90
3005;DHT22;1512;51.486;6.610;2023-07-02T13:59:14;22.70;99.90
3005;DHT22;1512;51.486;6.610;2023-07-02T14:03:24;22.50;99.90
3005;DHT22;1512;51.486;6.610;2023-07-02T14:07:32;22.30;99.90
3005;DHT22;1512;51.486;6.610;2023-07-02T14:11:42;22.70;99.90
3005;DHT22;1512;51.486;6.610;2023-07-02T14:15:51;23.10;99.90
3005;DHT22;1512;51.486;6.610;2023-07-02T14:20:00;23.30;99.90
3005;DHT22;1512;51.486;6.610;2023-07-02T14:24:10;23.50;99.90
3005;DHT22;1512;51.486;6.610;2023-07-02T14:28:38;23.50;99.90
3005;DHT22;1512;51.486;6.610;2023-07-02T14:32:47;23.30;99.90
3005;DHT22;1512;51.486;6.610;2023-07-02T14:36:56;23.20;99.90
3005;DHT22;1512;51.486;6.610;2023-07-02T14:41:05;23.10;99.90
3005;DHT22;1512;51.486;6.610;2023-07-02T14:45:14;22.90;99.90
3005;DHT22;1512;51.486;6.610;2023-07-02T14:49:22;22.90;99.90
3005;DHT22;1512;51.486;6.610;2023-07-02T14:53:32;22.60;99.90
3005;DHT22;1512;51.486;6.610;2023-07-02T14:57:41;22.70;99.90
3005;DHT22;1512;51.486;6.610;2023-07-02T15:01:50;23.10;99.90
3005;DHT22;1512;51.486;6.610;2023-07-02T15:06:13;23.40;99.90
3005;DHT22;1512;51.486;6.610;2023-07-02T15:10:22;23.10;99.90
3005;DHT22;1512;51.486;6.610;2023-07-02T15:14:31;22.70;99.90
3005;DHT22;1512;51.486;6.610;2023-07-02T15:18:39;22.50;99.90
3005;DHT22;1512;51.486;6.610;2023-07-02T15:22:48;22.40;99.90
3005;DHT22;1512;51.486;6.610;2023-07-02T15:26:57;22.30;99.90
3005;DHT22;1512;51.486;6.610;2023-07-02T15:31:08;22.70;99.90
3005;DHT22;1512;51.486;6.610;2023-07-02T15:35:18;23.00;99.90
3005;DHT22;1512;51.486;6.610;2023-07-02T15:39:27;23.30;99.90
3005;DHT22;1512;51.486;6.610;2023-07-02T15:43:38;23.50;99.90
3005;DHT22;1512;51.486;6.610;2023-07-02T15:47:47;23.40;99.90
3005;DHT22;1512;51.486;6.610;2023-07-02T15:51:56;23.30;99.90
3005;DHT22;1512;51.486;6.610;2023-07-02T15:56:05;23.10;99.90
3005;DHT22;1512;51.486;6.610;2023-07-02T16:00:14;23.20;99.90
3005;DHT22;1512;51.486;6.610;2023-07-02T16:04:23;23.20;99.90
3005;DHT22;1512;51.486;6.610;2023-07-02T16:08:34;23.20;99.90
3005;DHT22;1512;51.486;6.610;2023-07-02T16:12:42;23.30;99.90
3005;DHT22;1512;51.486;6.610;2023-07-02T16:16:51;23.20;99.90
3005;DHT22;1512;51.486;6.610;2023-07-02T16:21:03;22.90;99.90
3005;DHT22;1512;51.486;6.610;2023-07-02T16:25:12;22.70;99.90
3005;DHT22;1512;51.486;6.610;2023-07-02T16:29:21;22.60;99.90
3005;DHT22;1512;51.486;6.610;2023-07-02T16:33:29;23.00;99.90
3005;DHT22;1512;51.486;6.610;2023-07-02T16:37:40;23.20;99.90
3005;DHT22;1512;51.486;6.610;2023-07-02T16:41:49;23.10;99.90
3005;DHT22;1512;51.486;6.610;2023-07-02T16:45:57;23.00;99.90
3005;DHT22;1512;51.486;6.610;2023-07-02T16:50:07;22.90;99.90
3005;DHT22;1512;51.486;6.610;2023-07-02T16:54:17;22.80;99.90
3005;DHT22;1512;51.486;6.610;2023-07-02T16:58:28;22.60;99.90
3005;DHT22;1512;51.486;6.610;2023-07-02T17:02:56;22.60;99.90
3005;DHT22;1512;51.486;6.610;2023-07-02T17:07:06;22.60;99.90
3005;DHT22;1512;51.486;6.610;2023-07-02T17:11:16;22.50;99.90
3005;DHT22;1512;51.486;6.610;2023-07-02T17:15:24;22.40;99.90
3005;DHT22;1512;51.486;6.610;2023-07-02T17:19:40;22.40;99.90
3005;DHT22;1512;51.486;6.610;2023-07-02T17:23:44;22.30;99.90
3005;DHT22;1512;51.486;6.610;2023-07-02T17:27:53;22.40;99.90
3005;DHT22;1512;51.486;6.610;2023-07-02T17:32:06;22.50;99.90
3005;DHT22;1512;51.486;6.610;2023-07-02T17:36:35;22.40;99.90
3005;DHT22;1512;51.486;6.610;2023-07-02T17:40:43;22.30;99.90
3005;DHT22;1512;51.486;6.610;2023-07-02T17:44:52;22.10;99.90
3005;DHT22;1512;51.486;6.610;2023-07-02T17:49:07;22.00;99.90
3005;DHT22;1512;51.486;6.610;2023-07-02T17:53:15;21.90;99.90
3005;DHT22;1512;51.486;6.610;2023-07-02T17:57:25;21.90;99.90
3005;DHT22;1512;51.486;6.610;2023-07-02T18:01:54;21.80;99.90
3005;DHT22;1512;51.486;6.610;2023-07-02T18:06:03;21.80;99.90
3005;DHT22;1512;51.486;6.610;2023-07-02T18:10:11;21.80;99.90
3005;DHT22;1512;51.486;6.610;2023-07-02T18:14:20;21.80;99.90
3005;DHT22;1512;51.486;6.610;2023-07-02T18:18:30;21.60;99.90
3005;DHT22;1512;51.486;6.610;2023-07-02T18:22:39;21.60;99.90
3005;DHT22;1512;51.486;6.610;2023-07-02T18:26:50;21.50;99.90
3005;DHT22;1512;51.486;6.610;2023-07-02T18:30:59;21.50;99.90
3005;DHT22;1512;51.486;6.610;2023-07-02T18:35:08;21.50;99.90
3005;DHT22;1512;51.486;6.610;2023-07-02T18:39:17;21.40;99.90
3005;DHT22;1512;51.486;6.610;2023-07-02T18:43:26;21.30;99.90
3005;DHT22;1512;51.486;6.610;2023-07-02T18:47:35;21.30;99.90
3005;DHT22;1512;51.486;6.610;2023-07-02T18:51:44;21.30;99.90
3005;DHT22;1512;51.486;6.610;2023-07-02T18:56:01;21.20;99.90
3005;DHT22;1512;51.486;6.610;2023-07-02T19:00:11;21.20;99.90
3005;DHT22;1512;51.486;6.610;2023-07-02T19:08:41;21.10;99.90
3005;DHT22;1512;51.486;6.610;2023-07-02T19:12:49;21.20;99.90
3005;DHT22;1512;51.486;6.610;2023-07-02T19:16:58;21.00;99.90
3005;DHT22;1512;51.486;6.610;2023-07-02T19:21:07;20.90;99.90
3005;DHT22;1512;51.486;6.610;2023-07-02T19:25:17;20.80;99.90
3005;DHT22;1512;51.486;6.610;2023-07-02T19:29:28;20.70;99.90
3005;DHT22;1512;51.486;6.610;2023-07-02T19:33:38;20.70;99.90
3005;DHT22;1512;51.486;6.610;2023-07-02T19:37:47;20.60;99.90
3005;DHT22;1512;51.486;6.610;2023-07-02T19:41:55;20.50;99.90
3005;DHT22;1512;51.486;6.610;2023-07-02T19:46:04;20.40;99.90
3005;DHT22;1512;51.486;6.610;2023-07-02T19:50:13;20.30;99.90
3005;DHT22;1512;51.486;6.610;2023-07-02T19:54:21;20.30;99.90
3005;DHT22;1512;51.486;6.610;2023-07-02T19:58:30;20.30;99.90
3005;DHT22;1512;51.486;6.610;2023-07-02T20:02:39;20.10;99.90
3005;DHT22;1512;51.486;6.610;2023-07-02T20:06:48;20.00;99.90
3005;DHT22;1512;51.486;6.610;2023-07-02T20:10:57;19.90;99.90
3005;DHT22;1512;51.486;6.610;2023-07-02T20:15:07;19.90;99.90
3005;DHT22;1512;51.486;6.610;2023-07-02T20:19:16;19.90;99.90
3005;DHT22;1512;51.486;6.610;2023-07-02T20:23:47;19.90;99.90
3005;DHT22;1512;51.486;6.610;2023-07-02T20:27:56;19.70;99.90
3005;DHT22;1512;51.486;6.610;2023-07-02T20:32:04;19.70;99.90
3005;DHT22;1512;51.486;6.610;2023-07-02T20:36:14;19.60;99.90
3005;DHT22;1512;51.486;6.610;2023-07-02T20:40:23;19.60;99.90
3005;DHT22;1512;51.486;6.610;2023-07-02T20:44:32;19.50;99.90
3005;DHT22;1512;51.486;6.610;2023-07-02T20:48:41;19.50;99.90
3005;DHT22;1512;51.486;6.610;2023-07-02T20:52:51;19.50;99.90
3005;DHT22;1512;51.486;6.610;2023-07-02T20:57:00;19.30;99.90
3005;DHT22;1512;51.486;6.610;2023-07-02T21:01:11;19.30;99.90
3005;DHT22;1512;51.486;6.610;2023-07-02T21:05:20;19.30;99.90
3005;DHT22;1512;51.486;6.610;2023-07-02T21:09:28;19.40;99.90
3005;DHT22;1512;51.486;6.610;2023-07-02T21:13:37;19.40;99.90
3005;DHT22;1512;51.486;6.610;2023-07-02T21:17:48;19.40;99.90
3005;DHT22;1512;51.486;6.610;2023-07-02T21:21:57;19.40;99.90
3005;DHT22;1512;51.486;6.610;2023-07-02T21:26:05;19.40;99.90
3005;DHT22;1512;51.486;6.610;2023-07-02T21:30:17;19.30;99.90
3005;DHT22;1512;51.486;6.610;2023-07-02T21:34:25;19.20;99.90
3005;DHT22;1512;51.486;6.610;2023-07-02T21:38:35;19.10;99.90
3005;DHT22;1512;51.486;6.610;2023-07-02T21:42:44;19.00;99.90
3005;DHT22;1512;51.486;6.610;2023-07-02T21:46:53;18.90;99.90
3005;DHT22;1512;51.486;6.610;2023-07-02T21:51:02;18.90;99.90
3005;DHT22;1512;51.486;6.610;2023-07-02T21:55:11;18.90;99.90
3005;DHT22;1512;51.486;6.610;2023-07-02T21:59:19;18.80;99.90
3005;DHT22;1512;51.486;6.610;2023-07-02T22:03:30;18.80;99.90
3005;DHT22;1512;51.486;6.610;2023-07-02T22:07:38;18.70;99.90
3005;DHT22;1512;51.486;6.610;2023-07-02T22:11:47;18.70;99.90
3005;DHT22;1512;51.486;6.610;2023-07-02T22:15:56;18.60;99.90
3005;DHT22;1512;51.486;6.610;2023-07-02T22:20:05;18.60;99.90
3005;DHT22;1512;51.486;6.610;2023-07-02T22:24:40;18.50;99.90
3005;DHT22;1512;51.486;6.610;2023-07-02T22:28:48;18.40;99.90
3005;DHT22;1512;51.486;6.610;2023-07-02T22:32:57;18.30;99.90
3005;DHT22;1512;51.486;6.610;2023-07-02T22:37:06;18.20;99.90
3005;DHT22;1512;51.486;6.610;2023-07-02T22:41:15;18.10;99.90
3005;DHT22;1512;51.486;6.610;2023-07-02T22:45:23;18.10;99.90
3005;DHT22;1512;51.486;6.610;2023-07-02T22:49:33;18.00;99.90
3005;DHT22;1512;51.486;6.610;2023-07-02T22:53:42;18.10;99.90
3005;DHT22;1512;51.486;6.610;2023-07-02T22:57:50;18.00;99.90
3005;DHT22;1512;51.486;6.610;2023-07-02T23:01:59;17.90;99.90
3005;DHT22;1512;51.486;6.610;2023-07-02T23:06:08;17.90;99.90
3005;DHT22;1512;51.486;6.610;2023-07-02T23:10:36;17.80;99.90
3005;DHT22;1512;51.486;6.610;2023-07-02T23:14:45;17.70;99.90
3005;DHT22;1512;51.486;6.610;2023-07-02T23:18:53;17.60;99.90
3005;DHT22;1512;51.486;6.610;2023-07-02T23:23:03;17.60;99.90
3005;DHT22;1512;51.486;6.610;2023-07-02T23:27:13;17.50;99.90
3005;DHT22;1512;51.486;6.610;2023-07-02T23:31:27;17.50;99.90
3005;DHT22;1512;51.486;6.610;2023-07-02T23:35:37;17.40;99.90
3005;DHT22;1512;51.486;6.610;2023-07-02T23:39:45;17.30;99.90
3005;DHT22;1512;51.486;6.610;2023-07-02T23:43:56;17.30;99.90
3005;DHT22;1512;51.486;6.610;2023-07-02T23:48:04;17.20;99.90
3005;DHT22;1512;51.486;6.610;2023-07-02T23:52:13;17.20;99.90
3005;DHT22;1512;51.486;6.610;2023-07-02T23:56:22;17.00;99.90
